Port Hood, Canada
Current Conditions -  °F | °C
As of 10:00 PM on Monday 20 Oct 2014 (Local Time) from CYPD Reporting Station
Clear Clear  
Wind Chill:   Ceiling: Unl
Heat Index:   Visibility: 9mi
Dew Point:   Wind: 10mph
Humidity: 81%   Direction: 240°WSW
Pressure: 29.89"   Gusts: NA
Location:  46.03°N, 61.53°W
Report Text: CYPD 210100Z AUTO 24009KT 9SM CLR 04/01 A2989 RMK SLP127
Loading
Personal Weather Stations






























Interactive Weather Map
Tropical Storm Tracking
New forecast layout! Learn more

10-Day Weather Forecast

Advertisements
Track Severe Weather on mobile